Time;durP1;ratioP1;P1;durP2;ratioP2;P2;SDS_P1;SDS_P2;PMS_P1;PMS_P2;Temp;Humidity;BMP_temperature;BMP_pressure;BME280_temperature;BME280_humidity;BME280_pressure;Samples;Min_cycle;Max_cycle;Signal;HPM_P1;HPM_P2
2022/11/22 00:02:15;;;;;;;25.00;13.23;;;3.50;99.90;;;;;;5064453;28;20110;-74
2022/11/22 00:04:41;;;;;;;25.83;14.15;;;2.90;99.90;;;;;;5032937;28;20273;-75
2022/11/22 00:07:07;;;;;;;27.13;14.65;;;2.80;99.90;;;;;;5034845;28;20056;-75
2022/11/22 00:09:33;;;;;;;24.67;14.27;;;2.80;99.90;;;;;;5052048;28;20567;-75
2022/11/22 00:11:59;;;;;;;26.30;14.48;;;2.90;99.90;;;;;;5051101;28;20040;-74
2022/11/22 00:14:24;;;;;;;25.08;13.98;;;2.80;99.90;;;;;;5067370;28;20032;-74
2022/11/22 00:16:50;;;;;;;25.60;14.02;;;2.20;99.90;;;;;;5051654;28;20095;-74
2022/11/22 00:19:16;;;;;;;28.83;14.85;;;3.30;99.90;;;;;;5069487;28;20072;-75
2022/11/22 00:21:42;;;;;;;26.15;14.63;;;2.80;99.90;;;;;;5070822;28;20498;-75
2022/11/22 00:24:08;;;;;;;27.58;14.68;;;2.80;99.90;;;;;;5044757;28;20041;-75
2022/11/22 00:26:34;;;;;;;24.67;13.80;;;2.80;99.90;;;;;;5034863;28;20064;-75
2022/11/22 00:28:59;;;;;;;23.98;13.48;;;2.80;99.90;;;;;;5051164;28;20493;-75
2022/11/22 00:31:25;;;;;;;26.95;15.00;;;3.20;99.90;;;;;;5070426;28;20044;-75
2022/11/22 00:33:51;;;;;;;27.98;14.27;;;2.80;99.90;;;;;;5068997;28;20040;-74
2022/11/22 00:36:17;;;;;;;26.85;14.73;;;3.60;99.90;;;;;;5066590;28;20140;-76
2022/11/22 00:38:43;;;;;;;27.95;14.13;;;2.80;99.90;;;;;;5068384;28;20041;-76
2022/11/22 00:41:09;;;;;;;24.25;13.93;;;2.80;99.90;;;;;;5069240;28;20044;-75
2022/11/22 00:43:34;;;;;;;25.67;14.32;;;3.60;99.90;;;;;;5069807;28;20045;-75
2022/11/22 00:46:00;;;;;;;24.77;14.35;;;2.80;99.90;;;;;;5050562;28;20511;-74
2022/11/22 00:48:26;;;;;;;26.63;15.13;;;2.80;99.90;;;;;;5069508;28;20444;-74
2022/11/22 00:50:54;;;;;;;29.05;15.88;;;4.00;99.90;;;;;;5037787;28;20048;-75
2022/11/22 00:53:21;;;;;;;27.35;15.32;;;2.70;99.90;;;;;;5071426;28;20493;-74
2022/11/22 00:55:47;;;;;;;27.05;14.85;;;3.30;99.90;;;;;;5053752;28;20041;-75
2022/11/22 00:58:13;;;;;;;27.45;14.43;;;2.80;99.90;;;;;;5071307;28;20045;-75
2022/11/22 01:00:41;;;;;;;27.77;14.77;;;3.00;99.90;;;;;;5071561;28;20425;-75
2022/11/22 01:03:16;;;;;;;27.77;14.88;;;2.80;99.90;;;;;;5037994;28;20043;-76
2022/11/22 01:05:41;;;;;;;28.20;14.52;;;3.80;99.90;;;;;;5053691;28;20516;-75
2022/11/22 01:08:07;;;;;;;27.73;14.90;;;3.50;99.90;;;;;;5087942;28;20052;-75
2022/11/22 01:10:37;;;;;;;27.23;15.43;;;3.30;99.90;;;;;;5071441;28;20149;-75
2022/11/22 01:13:04;;;;;;;27.98;15.32;;;3.70;99.90;;;;;;5054482;28;20032;-74
2022/11/22 01:15:30;;;;;;;30.05;14.85;;;2.80;99.90;;;;;;5054488;28;20292;-74
2022/11/22 01:17:56;;;;;;;29.88;15.90;;;2.80;99.90;;;;;;5070558;28;20067;-75
2022/11/22 01:20:22;;;;;;;27.42;15.15;;;2.80;99.90;;;;;;5054978;28;20553;-75
2022/11/22 01:22:48;;;;;;;31.17;16.30;;;3.60;99.90;;;;;;5055502;28;20071;-75
2022/11/22 01:25:14;;;;;;;28.25;14.95;;;2.60;99.90;;;;;;5070990;28;20149;-75
2022/11/22 01:27:39;;;;;;;33.45;16.80;;;2.80;99.90;;;;;;5070005;28;20486;-75
2022/11/22 01:30:06;;;;;;;33.22;17.55;;;3.10;99.90;;;;;;5054341;28;20066;-75
2022/11/22 01:32:35;;;;;;;33.63;16.80;;;2.80;99.90;;;;;;5070965;28;20040;-75
2022/11/22 01:35:01;;;;;;;34.03;17.35;;;2.80;99.90;;;;;;5071413;28;20036;-75
2022/11/22 01:37:26;;;;;;;33.75;17.85;;;2.90;99.90;;;;;;5070055;28;20078;-74
2022/11/22 01:39:52;;;;;;;37.78;18.02;;;2.90;99.90;;;;;;5053833;28;20394;-75
2022/11/22 01:42:18;;;;;;;31.55;16.80;;;2.90;99.90;;;;;;5037019;28;20111;-75
2022/11/22 01:44:43;;;;;;;35.17;17.20;;;4.10;99.90;;;;;;5070878;28;20143;-74
2022/11/22 01:47:17;;;;;;;32.03;17.25;;;3.20;99.90;;;;;;5068983;28;20512;-74
2022/11/22 01:49:54;;;;;;;33.15;17.95;;;2.90;99.90;;;;;;5065150;28;20111;-75
2022/11/22 01:52:23;;;;;;;34.42;18.02;;;3.40;99.90;;;;;;5054008;28;20048;-76
2022/11/22 01:54:56;;;;;;;33.95;17.88;;;3.00;99.90;;;;;;5054319;28;20131;-75
2022/11/22 01:57:30;;;;;;;36.40;17.55;;;3.00;99.90;;;;;;5069672;28;20080;-75
2022/11/22 02:00:00;;;;;;;33.42;18.00;;;3.00;99.90;;;;;;5069223;28;20051;-75
2022/11/22 02:02:27;;;;;;;34.90;18.00;;;3.00;99.90;;;;;;5054032;28;20133;-74
2022/11/22 02:04:57;;;;;;;32.10;17.92;;;3.00;99.90;;;;;;5052247;28;20091;-75
2022/11/22 02:07:46;;;;;;;38.05;18.65;;;3.00;99.90;;;;;;5052164;28;20052;-75
2022/11/22 02:10:13;;;;;;;34.13;17.63;;;3.00;99.90;;;;;;5069416;28;20048;-74
2022/11/22 02:12:40;;;;;;;33.40;18.27;;;3.00;99.90;;;;;;5050574;28;20210;-75
2022/11/22 02:15:07;;;;;;;32.50;18.05;;;3.50;99.90;;;;;;5053961;28;20489;-74
2022/11/22 02:17:41;;;;;;;35.97;18.50;;;3.00;99.90;;;;;;5070000;28;20402;-75
2022/11/22 02:20:08;;;;;;;32.45;18.38;;;3.00;99.90;;;;;;5067106;28;20068;-74
2022/11/22 02:22:48;;;;;;;33.83;18.27;;;3.00;99.90;;;;;;5070391;28;20036;-76
2022/11/22 02:25:36;;;;;;;32.72;17.55;;;3.10;99.90;;;;;;5071313;28;20040;-73
2022/11/22 02:28:06;;;;;;;34.40;17.90;;;3.10;99.90;;;;;;5070240;28;20093;-74
2022/11/22 02:30:31;;;;;;;30.70;17.35;;;3.10;99.90;;;;;;5051101;28;20037;-75
2022/11/22 02:32:57;;;;;;;31.70;17.50;;;4.70;99.90;;;;;;5052946;28;20045;-75
2022/11/22 02:35:25;;;;;;;31.02;16.73;;;3.10;99.90;;;;;;5068582;28;20115;-74
2022/11/22 02:38:31;;;;;;;28.88;17.33;;;4.80;99.90;;;;;;5052824;28;20079;-73
2022/11/22 02:41:07;;;;;;;29.38;17.23;;;3.00;99.90;;;;;;5026513;28;20198;-73
2022/11/22 02:43:45;;;;;;;31.38;17.45;;;3.10;99.90;;;;;;5079507;28;20049;-75
2022/11/22 02:46:19;;;;;;;30.50;16.92;;;3.50;99.90;;;;;;5079625;28;20048;-74
2022/11/22 02:48:45;;;;;;;27.73;16.73;;;3.10;99.90;;;;;;5102804;28;20490;-75
2022/11/22 02:51:15;;;;;;;28.55;17.10;;;4.10;99.90;;;;;;5066142;28;20040;-74
2022/11/22 02:53:52;;;;;;;30.25;17.73;;;1.60;99.90;;;;;;5055505;28;20434;-74
2022/11/22 02:56:18;;;;;;;28.50;16.52;;;2.30;99.90;;;;;;5068007;28;20090;-74
2022/11/22 02:58:44;;;;;;;30.77;17.77;;;3.20;99.90;;;;;;5066351;28;20079;-74
2022/11/22 03:01:13;;;;;;;30.70;17.83;;;3.10;99.90;;;;;;5068434;28;20402;-75
2022/11/22 03:03:39;;;;;;;31.25;16.75;;;3.60;99.90;;;;;;5066277;28;21206;-74
2022/11/22 03:06:05;;;;;;;30.25;17.38;;;3.10;99.90;;;;;;5068732;28;20076;-76
2022/11/22 03:08:32;;;;;;;32.45;17.38;;;3.10;99.90;;;;;;5036349;28;20054;-75
2022/11/22 03:10:58;;;;;;;27.85;15.75;;;3.10;99.90;;;;;;5035828;28;20040;-75
2022/11/22 03:13:24;;;;;;;30.42;16.83;;;4.70;99.90;;;;;;5031626;28;20090;-74
2022/11/22 03:15:50;;;;;;;27.33;15.80;;;3.10;99.90;;;;;;5061902;28;20468;-74
2022/11/22 03:18:15;;;;;;;29.10;15.68;;;3.10;99.90;;;;;;5051322;28;20044;-76
2022/11/22 03:20:41;;;;;;;29.98;16.48;;;3.20;99.90;;;;;;5069466;28;20182;-75
2022/11/22 03:23:07;;;;;;;27.98;16.20;;;3.20;99.90;;;;;;5067593;28;20044;-75
2022/11/22 03:25:36;;;;;;;26.25;15.88;;;3.50;99.90;;;;;;5053111;28;20076;-75
2022/11/22 03:28:02;;;;;;;30.58;16.33;;;3.20;99.90;;;;;;5067830;28;20076;-75
2022/11/22 03:30:28;;;;;;;29.95;16.10;;;3.20;99.90;;;;;;5069182;28;20071;-76
2022/11/22 03:32:54;;;;;;;30.80;17.40;;;3.20;99.90;;;;;;5050820;28;20056;-75
2022/11/22 03:35:20;;;;;;;24.67;15.18;;;3.20;99.90;;;;;;5068430;28;20036;-75
2022/11/22 03:37:46;;;;;;;29.05;16.50;;;3.60;99.90;;;;;;5068527;28;20044;-75
2022/11/22 03:40:12;;;;;;;31.98;17.13;;;3.20;99.90;;;;;;5051508;28;20097;-75
2022/11/22 03:42:38;;;;;;;27.33;15.90;;;3.20;99.90;;;;;;5052469;28;20127;-74
2022/11/22 03:45:04;;;;;;;28.67;15.80;;;3.20;99.90;;;;;;5065965;28;20508;-74
2022/11/22 03:47:30;;;;;;;28.85;15.90;;;3.20;99.90;;;;;;5068064;28;20045;-74
2022/11/22 03:49:55;;;;;;;29.80;16.45;;;4.60;99.90;;;;;;5068596;28;20044;-75
2022/11/22 03:52:21;;;;;;;28.25;15.88;;;3.20;99.90;;;;;;5069427;28;20032;-75
2022/11/22 03:54:47;;;;;;;30.58;16.48;;;3.20;99.90;;;;;;5049309;28;20519;-75
2022/11/22 03:57:12;;;;;;;31.45;16.75;;;3.30;99.90;;;;;;5067448;28;20040;-75
2022/11/22 03:59:38;;;;;;;28.55;16.25;;;3.70;99.90;;;;;;5052017;28;20098;-74
2022/11/22 04:02:04;;;;;;;30.30;16.45;;;5.00;99.90;;;;;;5065542;28;20410;-75
2022/11/22 04:04:30;;;;;;;29.05;15.57;;;2.60;99.90;;;;;;5049139;28;20041;-74
2022/11/22 04:06:55;;;;;;;25.48;14.88;;;5.30;99.90;;;;;;5053270;28;20053;-74
2022/11/22 04:09:21;;;;;;;28.17;15.07;;;4.80;99.90;;;;;;5069557;28;20048;-75
2022/11/22 04:11:47;;;;;;;30.67;15.98;;;4.40;99.90;;;;;;5052692;28;20114;-75
2022/11/22 04:16:57;;;;;;;30.65;15.63;;;3.40;99.90;;;;;;5065628;28;20118;-75
2022/11/22 04:19:22;;;;;;;25.45;15.07;;;4.40;99.90;;;;;;5068277;28;20133;-75
2022/11/22 04:21:48;;;;;;;31.25;15.88;;;3.90;99.90;;;;;;5068711;28;20041;-75
2022/11/22 04:26:58;;;;;;;30.05;15.75;;;3.40;99.90;;;;;;5070328;28;20495;-76
2022/11/22 04:29:26;;;;;;;26.45;14.35;;;4.00;99.90;;;;;;5072014;28;20052;-74
2022/11/22 04:34:36;;;;;;;27.88;15.23;;;4.00;99.90;;;;;;5073428;28;20044;-75
2022/11/22 04:37:03;;;;;;;28.75;15.30;;;3.50;99.90;;;;;;5070923;28;20037;-75
2022/11/22 04:39:29;;;;;;;25.33;13.98;;;3.50;99.90;;;;;;5038037;28;20059;-75
2022/11/22 04:44:41;;;;;;;25.75;14.02;;;3.60;99.90;;;;;;5071769;28;20040;-76
2022/11/22 04:47:11;;;;;;;28.38;14.50;;;3.60;99.90;;;;;;5070737;28;20044;-75
2022/11/22 04:49:37;;;;;;;28.17;14.68;;;5.20;99.90;;;;;;5071968;28;20079;-76
2022/11/22 04:54:50;;;;;;;30.70;13.88;;;3.70;99.90;;;;;;5071838;28;20068;-75
2022/11/22 04:57:16;;;;;;;27.65;15.25;;;4.20;99.90;;;;;;5070163;28;20091;-75
2022/11/22 04:59:42;;;;;;;27.20;14.48;;;4.80;99.90;;;;;;5072057;28;20113;-76
2022/11/22 05:02:07;;;;;;;28.15;14.93;;;4.10;99.90;;;;;;5071467;28;20101;-76
2022/11/22 05:04:33;;;;;;;27.80;15.13;;;3.50;99.90;;;;;;5038614;28;20044;-76
2022/11/22 05:06:59;;;;;;;28.58;14.73;;;4.80;99.90;;;;;;5070740;28;20140;-76
2022/11/22 05:09:24;;;;;;;25.17;14.88;;;4.60;99.90;;;;;;5070840;28;20067;-75
2022/11/22 05:11:50;;;;;;;26.90;14.48;;;3.70;99.90;;;;;;5073059;28;20057;-75
2022/11/22 05:14:16;;;;;;;28.65;15.13;;;3.80;99.90;;;;;;5062688;28;20033;-76
2022/11/22 05:16:42;;;;;;;29.55;15.60;;;5.10;99.90;;;;;;5067929;28;20040;-76
2022/11/22 05:19:07;;;;;;;27.17;14.93;;;4.20;99.90;;;;;;5070189;28;20477;-77
2022/11/22 05:21:34;;;;;;;25.63;14.55;;;3.70;99.90;;;;;;5072649;28;20334;-75
2022/11/22 05:24:01;;;;;;;28.67;14.98;;;4.90;99.90;;;;;;5054828;28;20119;-74
2022/11/22 05:26:31;;;;;;;29.65;14.93;;;4.40;99.90;;;;;;5067253;28;20193;-76
2022/11/22 05:29:01;;;;;;;27.40;13.40;;;3.80;99.90;;;;;;5101688;28;20046;-75
2022/11/22 05:31:27;;;;;;;26.02;14.55;;;3.80;99.90;;;;;;5069922;28;20029;-74
2022/11/22 05:33:55;;;;;;;27.48;14.20;;;3.80;99.90;;;;;;5049185;28;20055;-76
2022/11/22 05:36:21;;;;;;;27.88;13.82;;;4.50;99.90;;;;;;5061812;28;20071;-75
2022/11/22 05:38:47;;;;;;;30.33;14.63;;;3.80;99.90;;;;;;5064175;28;20044;-76
2022/11/22 05:41:14;;;;;;;28.88;15.70;;;4.00;99.90;;;;;;5071269;28;20224;-76
2022/11/22 05:43:41;;;;;;;28.40;15.82;;;3.80;99.90;;;;;;5073265;28;20041;-76
2022/11/22 05:46:33;;;;;;;28.10;14.10;;;3.80;99.90;;;;;;5069676;28;20409;-76
2022/11/22 05:48:58;;;;;;;28.00;14.55;;;3.90;99.90;;;;;;5039868;28;20095;-76
2022/11/22 05:51:26;;;;;;;28.60;15.05;;;3.10;99.90;;;;;;5038954;28;20072;-76
2022/11/22 05:53:52;;;;;;;27.55;14.35;;;3.90;99.90;;;;;;5049587;28;20178;-75
2022/11/22 05:56:22;;;;;;;27.65;14.35;;;3.90;99.90;;;;;;5066923;28;20464;-76
2022/11/22 05:58:48;;;;;;;27.77;14.77;;;3.90;99.90;;;;;;5050815;28;20600;-76
2022/11/22 06:01:17;;;;;;;28.85;15.20;;;5.70;99.90;;;;;;5053657;28;20493;-76
2022/11/22 06:03:44;;;;;;;23.95;13.50;;;4.00;99.90;;;;;;5070482;28;20052;-76
2022/11/22 06:06:12;;;;;;;26.02;13.77;;;4.00;99.90;;;;;;5034880;28;20287;-76
2022/11/22 06:08:46;;;;;;;28.90;14.98;;;4.00;99.90;;;;;;5071484;28;20553;-77
2022/11/22 06:11:19;;;;;;;30.67;15.85;;;4.00;99.90;;;;;;5054306;28;20399;-76
2022/11/22 06:13:47;;;;;;;24.88;14.13;;;4.00;99.90;;;;;;5070311;28;20078;-76
2022/11/22 06:16:14;;;;;;;28.05;14.75;;;4.00;99.90;;;;;;5069982;28;20047;-76
2022/11/22 06:18:41;;;;;;;29.23;14.75;;;4.00;99.90;;;;;;5070195;28;20422;-76
2022/11/22 06:21:11;;;;;;;29.75;15.02;;;5.40;99.90;;;;;;5066159;28;20044;-76
2022/11/22 06:23:40;;;;;;;26.77;14.38;;;4.00;99.90;;;;;;5071208;28;20111;-76
2022/11/22 06:26:11;;;;;;;26.27;14.27;;;4.10;99.90;;;;;;5080323;28;20169;-75
2022/11/22 06:28:38;;;;;;;26.27;13.88;;;4.00;99.90;;;;;;5052737;28;20047;-76
2022/11/22 06:31:07;;;;;;;28.42;15.18;;;4.30;99.90;;;;;;5051494;28;20050;-75
2022/11/22 06:33:33;;;;;;;28.33;15.02;;;4.10;99.90;;;;;;5048435;28;20032;-75
2022/11/22 06:36:12;;;;;;;26.13;14.55;;;4.10;99.90;;;;;;5050342;28;20040;-75
2022/11/22 06:38:39;;;;;;;26.70;15.15;;;4.10;99.90;;;;;;5069761;28;20048;-77
2022/11/22 06:41:07;;;;;;;23.40;14.38;;;4.10;99.90;;;;;;5067135;28;20119;-75
2022/11/22 06:43:34;;;;;;;25.98;14.23;;;4.50;99.90;;;;;;5069206;28;20405;-76
2022/11/22 06:46:02;;;;;;;27.20;14.50;;;4.80;99.90;;;;;;5069661;28;20106;-76
2022/11/22 06:48:33;;;;;;;26.75;14.60;;;4.90;99.90;;;;;;5071006;28;20040;-76
2022/11/22 06:51:08;;;;;;;27.25;14.93;;;4.20;99.90;;;;;;5068266;28;20045;-76
2022/11/22 06:53:37;;;;;;;28.10;14.68;;;4.20;99.90;;;;;;5069890;28;20048;-76
2022/11/22 06:56:09;;;;;;;24.45;13.43;;;4.20;99.90;;;;;;5069943;28;20116;-75
2022/11/22 06:58:35;;;;;;;24.80;13.60;;;4.20;99.90;;;;;;5053499;28;20414;-75
2022/11/22 07:01:05;;;;;;;28.83;14.85;;;4.60;99.90;;;;;;5051873;28;20482;-76
2022/11/22 07:03:31;;;;;;;26.50;13.75;;;4.20;99.90;;;;;;5069364;28;20052;-75
2022/11/22 07:05:56;;;;;;;27.42;14.50;;;4.20;99.90;;;;;;5066951;28;20080;-77
2022/11/22 07:08:23;;;;;;;31.45;15.57;;;4.20;99.90;;;;;;5067393;28;20055;-74
2022/11/22 07:10:49;;;;;;;29.15;15.73;;;5.00;99.90;;;;;;5084851;28;20036;-75
2022/11/22 07:13:17;;;;;;;24.52;14.27;;;4.30;99.90;;;;;;5065234;28;20059;-76
2022/11/22 07:15:52;;;;;;;27.00;14.48;;;4.30;99.90;;;;;;5071272;28;20044;-76
2022/11/22 07:18:17;;;;;;;27.20;14.70;;;4.30;99.90;;;;;;5069971;28;20044;-76
2022/11/22 07:20:43;;;;;;;32.10;14.80;;;4.90;99.90;;;;;;5068799;28;20127;-75
2022/11/22 07:23:11;;;;;;;32.28;15.10;;;4.40;99.90;;;;;;5048703;28;20072;-75
2022/11/22 07:25:37;;;;;;;29.58;14.52;;;4.40;99.90;;;;;;5067587;28;20060;-75
2022/11/22 07:28:02;;;;;;;27.50;14.13;;;4.40;99.90;;;;;;5052554;28;20042;-76
2022/11/22 07:30:28;;;;;;;27.08;15.02;;;4.40;99.90;;;;;;5052676;28;20045;-76
2022/11/22 07:32:57;;;;;;;29.45;14.88;;;4.40;99.90;;;;;;5082050;28;20486;-76
2022/11/22 07:35:22;;;;;;;27.05;13.80;;;4.60;99.90;;;;;;5054133;28;20393;-76
2022/11/22 07:37:48;;;;;;;27.23;15.15;;;4.50;99.90;;;;;;5069379;28;20044;-76
2022/11/22 07:40:19;;;;;;;25.98;14.80;;;4.50;99.90;;;;;;5045491;28;20040;-76
2022/11/22 07:42:45;;;;;;;25.92;15.00;;;4.90;99.90;;;;;;5059923;28;20087;-76
2022/11/22 07:45:13;;;;;;;29.90;15.52;;;4.50;99.90;;;;;;5049942;28;20119;-76
2022/11/22 07:47:39;;;;;;;27.77;15.90;;;5.90;99.90;;;;;;5068365;28;20123;-77
2022/11/22 07:50:05;;;;;;;29.80;14.77;;;4.60;99.90;;;;;;5053080;28;20095;-76
2022/11/22 07:52:31;;;;;;;27.98;15.43;;;4.60;99.90;;;;;;5068315;28;20493;-75
2022/11/22 07:54:57;;;;;;;27.83;13.27;;;4.60;99.90;;;;;;5066638;28;20165;-76
2022/11/22 07:57:25;;;;;;;29.48;14.80;;;4.60;99.90;;;;;;5061093;28;20433;-76
2022/11/22 07:59:51;;;;;;;28.23;14.32;;;4.70;99.90;;;;;;5066021;28;20112;-75
2022/11/22 08:02:20;;;;;;;26.35;14.63;;;4.70;99.90;;;;;;5032998;28;20080;-75
2022/11/22 08:04:48;;;;;;;27.60;14.70;;;4.70;99.90;;;;;;5049366;28;20052;-76
2022/11/22 08:07:16;;;;;;;24.83;14.07;;;4.80;99.90;;;;;;5074630;28;20114;-75
2022/11/22 08:09:44;;;;;;;29.08;13.57;;;4.80;99.90;;;;;;5066436;28;20071;-76
2022/11/22 08:12:10;;;;;;;27.35;13.93;;;;;;;;;;5050694;28;20461;-75
2022/11/22 08:14:36;;;;;;;23.48;12.40;;;5.00;99.90;;;;;;5062431;28;20033;-74
2022/11/22 08:17:02;;;;;;;24.73;12.32;;;5.00;99.90;;;;;;5065009;28;20452;-76
2022/11/22 08:19:34;;;;;;;23.23;11.77;;;6.00;99.90;;;;;;5050659;28;20036;-76
2022/11/22 08:22:00;;;;;;;20.70;10.50;;;5.10;99.90;;;;;;5080712;28;20067;-75
2022/11/22 08:24:26;;;;;;;22.63;10.85;;;6.20;99.90;;;;;;5050034;28;20490;-75
2022/11/22 08:26:51;;;;;;;22.08;11.32;;;5.30;99.90;;;;;;5049192;28;20482;-75
2022/11/22 08:29:17;;;;;;;20.88;10.77;;;5.30;99.90;;;;;;5052619;28;20036;-75
2022/11/22 08:31:43;;;;;;;22.70;10.27;;;6.00;99.90;;;;;;5064354;28;20117;-76
2022/11/22 08:34:08;;;;;;;22.83;10.10;;;5.50;99.90;;;;;;5063568;28;20037;-76
2022/11/22 08:36:34;;;;;;;19.90;9.65;;;5.50;99.90;;;;;;5065236;28;20068;-76
2022/11/22 08:39:00;;;;;;;23.25;9.68;;;5.50;99.90;;;;;;5034090;28;20041;-76
2022/11/22 08:41:26;;;;;;;23.27;9.13;;;5.50;99.90;;;;;;5029893;28;20039;-76
2022/11/22 08:43:52;;;;;;;16.35;8.23;;;5.50;99.90;;;;;;5034353;28;20047;-76
2022/11/22 08:46:18;;;;;;;20.08;8.52;;;5.60;99.90;;;;;;5068101;28;20116;-76
2022/11/22 08:48:44;;;;;;;22.23;8.15;;;6.60;99.90;;;;;;5068025;28;20510;-76
2022/11/22 08:51:12;;;;;;;20.88;7.20;;;6.20;99.90;;;;;;5063366;28;20047;-76
2022/11/22 08:53:40;;;;;;;18.45;6.82;;;5.70;99.90;;;;;;5067199;28;20052;-76
2022/11/22 08:56:10;;;;;;;15.27;6.50;;;5.70;99.90;;;;;;5067843;28;20105;-76
2022/11/22 08:58:36;;;;;;;20.73;6.75;;;5.80;99.90;;;;;;5070173;28;20052;-76
2022/11/22 09:01:04;;;;;;;18.30;6.00;;;5.80;99.90;;;;;;5065637;28;20047;-76
2022/11/22 09:03:30;;;;;;;18.85;6.38;;;5.90;99.90;;;;;;5063537;28;20043;-76
2022/11/22 09:06:01;;;;;;;21.92;6.22;;;6.00;99.90;;;;;;5065912;28;20465;-76
2022/11/22 09:08:27;;;;;;;16.35;5.72;;;4.90;99.90;;;;;;5064128;28;20099;-76
2022/11/22 09:10:53;;;;;;;17.52;5.72;;;6.00;99.90;;;;;;5053143;28;20041;-76
2022/11/22 09:13:18;;;;;;;18.60;6.07;;;6.00;99.90;;;;;;5067925;28;20037;-76
2022/11/22 09:15:44;;;;;;;16.90;5.63;;;6.40;99.90;;;;;;5067211;28;20032;-76
2022/11/22 09:18:10;;;;;;;18.85;5.45;;;6.10;99.90;;;;;;5059804;28;20043;-76
2022/11/22 09:20:35;;;;;;;18.88;6.10;;;6.40;99.90;;;;;;5072601;28;20035;-75
2022/11/22 09:23:10;;;;;;;17.60;5.57;;;6.10;99.90;;;;;;5053056;28;20048;-76
2022/11/22 09:25:36;;;;;;;16.13;5.07;;;6.10;99.90;;;;;;5068788;28;20036;-76
2022/11/22 09:28:02;;;;;;;16.27;5.05;;;6.10;99.90;;;;;;5053320;28;20045;-76
2022/11/22 09:30:30;;;;;;;13.82;5.28;;;6.20;99.90;;;;;;5054807;28;20541;-76
2022/11/22 09:32:56;;;;;;;16.40;5.18;;;6.20;99.90;;;;;;5057475;28;20059;-76
2022/11/22 09:35:22;;;;;;;15.75;4.68;;;6.20;99.90;;;;;;5069472;28;20036;-76
2022/11/22 09:37:47;;;;;;;14.40;4.32;;;6.80;99.90;;;;;;5067687;28;20127;-77
2022/11/22 09:40:14;;;;;;;13.57;4.57;;;6.20;99.90;;;;;;5032186;28;20041;-78
2022/11/22 09:43:09;;;;;;;14.10;4.45;;;6.30;99.90;;;;;;5063090;28;20052;-76
2022/11/22 09:45:59;;;;;;;15.85;4.40;;;6.30;99.90;;;;;;5068969;28;20063;-76
2022/11/22 09:48:50;;;;;;;14.85;3.95;;;5.90;99.90;;;;;;5056008;28;20472;-75
2022/11/22 09:51:21;;;;;;;15.10;4.38;;;6.30;99.90;;;;;;5067444;28;20398;-76
2022/11/22 09:54:15;;;;;;;13.35;4.00;;;7.60;99.90;;;;;;5070352;28;20037;-76
2022/11/22 09:56:41;;;;;;;16.50;4.43;;;6.20;99.90;;;;;;5066901;28;20055;-76
2022/11/22 09:59:22;;;;;;;19.45;4.00;;;6.20;99.90;;;;;;5068899;28;20044;-76
2022/11/22 10:02:01;;;;;;;13.07;3.83;;;6.30;99.90;;;;;;5051953;28;20044;-75
2022/11/22 10:04:59;;;;;;;15.90;3.40;;;5.90;99.90;;;;;;5070013;28;20316;-76
2022/11/22 10:07:34;;;;;;;13.55;3.70;;;6.20;99.90;;;;;;5050996;28;20456;-76
2022/11/22 10:10:32;;;;;;;13.02;3.40;;;6.20;99.90;;;;;;5071743;28;20049;-76
2022/11/22 10:13:18;;;;;;;12.32;3.30;;;6.20;99.90;;;;;;5047235;28;20060;-76
2022/11/22 10:15:53;;;;;;;16.35;3.63;;;6.30;99.90;;;;;;5067828;28;20038;-76
2022/11/22 10:18:42;;;;;;;12.82;3.08;;;6.30;99.90;;;;;;5096409;28;20108;-77
2022/11/22 10:21:12;;;;;;;13.75;3.20;;;6.30;99.90;;;;;;5067993;28;20374;-76
2022/11/22 10:23:40;;;;;;;14.07;3.10;;;6.40;99.90;;;;;;5071278;28;20037;-77
2022/11/22 10:26:31;;;;;;;13.32;3.05;;;8.00;99.90;;;;;;5036690;28;20052;-75
2022/11/22 10:29:36;;;;;;;12.45;3.13;;;6.50;99.90;;;;;;5070489;28;20040;-76
2022/11/22 10:32:23;;;;;;;12.40;3.10;;;6.50;99.90;;;;;;5064851;28;20036;-76
2022/11/22 10:35:13;;;;;;;14.25;2.90;;;6.50;99.90;;;;;;5071210;28;20028;-77
2022/11/22 10:38:06;;;;;;;13.38;3.40;;;6.60;99.90;;;;;;5071240;28;20040;-76
2022/11/22 10:41:00;;;;;;;16.10;3.10;;;6.60;99.90;;;;;;5067844;28;20040;-77
2022/11/22 10:43:31;;;;;;;11.60;2.95;;;6.60;99.90;;;;;;5061537;28;20041;-76
2022/11/22 10:46:21;;;;;;;15.77;2.85;;;6.60;99.90;;;;;;5071348;28;20052;-76
2022/11/22 10:49:00;;;;;;;12.68;3.22;;;6.60;99.90;;;;;;5051615;28;20115;-76
2022/11/22 10:51:51;;;;;;;12.40;3.05;;;7.00;99.90;;;;;;5103215;28;20045;-76
2022/11/22 10:54:22;;;;;;;10.90;2.50;;;6.60;99.90;;;;;;5085076;28;20064;-76
2022/11/22 10:57:00;;;;;;;11.40;2.83;;;7.50;99.90;;;;;;5050935;28;20044;-77
2022/11/22 10:59:48;;;;;;;11.38;3.03;;;6.70;99.90;;;;;;5078054;28;20468;-76
2022/11/22 11:02:31;;;;;;;9.10;2.33;;;6.90;99.90;;;;;;5099939;28;20116;-77
2022/11/22 11:04:59;;;;;;;10.15;2.40;;;7.00;99.90;;;;;;5069558;28;20045;-76
2022/11/22 11:07:26;;;;;;;9.55;2.38;;;7.10;99.90;;;;;;5068421;28;20060;-76
2022/11/22 11:09:59;;;;;;;9.13;2.40;;;7.20;99.90;;;;;;5054194;28;20036;-76
2022/11/22 11:12:34;;;;;;;;;;;7.30;99.90;;;;;;5070753;28;20398;-76
2022/11/22 11:15:05;;;;;;;9.52;2.17;;;7.40;99.90;;;;;;5069665;28;19956;-76
2022/11/22 11:17:35;;;;;;;11.55;2.25;;;7.40;99.90;;;;;;5068621;28;20368;-77
2022/11/22 11:20:10;;;;;;;7.70;2.30;;;7.70;99.90;;;;;;5069510;28;20036;-76
2022/11/22 11:22:36;;;;;;;10.40;2.42;;;7.60;99.90;;;;;;5067719;28;20047;-76
2022/11/22 11:25:41;;;;;;;10.95;2.63;;;7.60;99.90;;;;;;5068956;28;20056;-76
2022/11/22 11:28:23;;;;;;;9.88;2.45;;;7.60;99.90;;;;;;5068605;28;20056;-76
2022/11/22 11:31:09;;;;;;;10.18;2.40;;;8.20;99.90;;;;;;5068289;28;20059;-76
2022/11/22 11:33:37;;;;;;;9.55;2.60;;;6.60;99.90;;;;;;5066342;28;20128;-75
2022/11/22 11:36:20;;;;;;;9.23;2.20;;;7.50;99.90;;;;;;5052213;28;20040;-76
2022/11/22 11:38:49;;;;;;;;;;;7.40;99.90;;;;;;5067815;28;20559;-76
2022/11/22 11:41:31;;;;;;;10.20;2.40;;;7.40;99.90;;;;;;5063052;28;19916;-76
2022/11/22 11:44:01;;;;;;;10.05;1.98;;;7.30;99.90;;;;;;5049753;28;20075;-76
2022/11/22 11:46:40;;;;;;;11.27;2.70;;;7.30;99.90;;;;;;5102072;28;20120;-76
2022/11/22 11:49:13;;;;;;;11.52;2.22;;;7.30;99.90;;;;;;5069770;28;20202;-75
2022/11/22 11:51:44;;;;;;;13.13;2.55;;;7.30;99.90;;;;;;5069795;28;20032;-77
2022/11/22 11:54:27;;;;;;;10.77;2.40;;;7.20;99.90;;;;;;5050837;28;20028;-76
2022/11/22 11:57:03;;;;;;;11.52;2.20;;;7.20;99.90;;;;;;5048772;28;20040;-77
2022/11/22 11:59:50;;;;;;;10.15;2.33;;;7.30;99.90;;;;;;5066148;28;20493;-76
2022/11/22 12:02:24;;;;;;;12.40;2.78;;;7.30;99.90;;;;;;5074420;28;20518;-76
2022/11/22 12:04:51;;;;;;;9.70;2.53;;;7.30;99.90;;;;;;5067649;28;20753;-75
2022/11/22 12:07:24;;;;;;;10.15;2.33;;;7.40;99.90;;;;;;5065769;28;20417;-76
2022/11/22 12:09:52;;;;;;;11.48;2.50;;;7.40;99.90;;;;;;5098124;28;20482;-76
2022/11/22 12:12:34;;;;;;;14.65;2.42;;;7.40;99.90;;;;;;5068632;28;20032;-76
2022/11/22 12:15:30;;;;;;;10.40;2.67;;;7.50;99.90;;;;;;5059024;28;20115;-75
2022/11/22 12:18:03;;;;;;;14.45;2.50;;;7.50;99.90;;;;;;5015830;28;20168;-76
2022/11/22 12:20:59;;;;;;;14.23;2.70;;;7.50;99.90;;;;;;5050001;28;20040;-76
2022/11/22 12:23:46;;;;;;;9.25;2.22;;;7.50;99.90;;;;;;5047973;28;20033;-75
2022/11/22 12:26:13;;;;;;;8.82;2.17;;;7.60;99.90;;;;;;5052861;28;20049;-77
2022/11/22 12:28:39;;;;;;;9.10;2.30;;;7.70;99.90;;;;;;5066837;28;20591;-75
2022/11/22 12:31:24;;;;;;;11.43;2.30;;;8.00;99.90;;;;;;5066061;28;20036;-77
2022/11/22 12:33:57;;;;;;;9.93;2.38;;;7.60;99.90;;;;;;5084071;28;20048;-75
2022/11/22 12:36:41;;;;;;;10.05;2.40;;;7.70;99.90;;;;;;5050114;28;20080;-77
2022/11/22 12:39:15;;;;;;;11.68;2.45;;;7.70;99.90;;;;;;5067290;28;20041;-75
2022/11/22 12:41:46;;;;;;;11.20;2.70;;;7.70;99.90;;;;;;5065004;28;20067;-76
2022/11/22 12:44:17;;;;;;;11.93;2.70;;;8.50;99.90;;;;;;5070507;28;20059;-75
2022/11/22 12:46:50;;;;;;;9.70;2.35;;;7.70;99.90;;;;;;5070624;28;20095;-76
2022/11/22 12:49:30;;;;;;;10.70;2.45;;;7.70;99.90;;;;;;5053204;28;20033;-76
2022/11/22 12:52:09;;;;;;;8.77;2.40;;;7.70;99.90;;;;;;5040535;28;20043;-76
2022/11/22 12:54:50;;;;;;;8.35;2.15;;;7.60;99.90;;;;;;5070467;28;20051;-76
2022/11/22 12:57:22;;;;;;;11.80;2.70;;;7.60;99.90;;;;;;5070794;28;20527;-76
2022/11/22 13:00:05;;;;;;;10.02;2.30;;;7.80;99.90;;;;;;5077174;28;20052;-77
2022/11/22 13:02:41;;;;;;;8.27;2.38;;;7.60;99.90;;;;;;5053998;28;20485;-74
2022/11/22 13:05:19;;;;;;;12.75;2.13;;;7.70;99.90;;;;;;5055706;28;20420;-76
2022/11/22 13:08:10;;;;;;;9.05;2.15;;;7.70;99.90;;;;;;5071675;28;20127;-75
2022/11/22 13:10:43;;;;;;;10.57;2.30;;;7.70;99.90;;;;;;5069842;28;20571;-76
2022/11/22 13:13:39;;;;;;;10.82;2.58;;;7.70;99.90;;;;;;5067457;28;20033;-76